Time;durP1;ratioP1;P1;durP2;ratioP2;P2;SDS_P1;SDS_P2;PMS_P1;PMS_P2;Temp;Humidity;BMP_temperature;BMP_pressure;BME280_temperature;BME280_humidity;BME280_pressure;Samples;Min_cycle;Max_cycle;Signal;HPM_P1;HPM_P2
2021/08/16 00:01:53;;;;;;;;;;;;;;;-144.99;97.41;52370.63;5028474;28;20479;-81
2021/08/16 00:04:19;;;;;;;;;;;;;;;-144.99;97.60;52358.41;5028653;28;19980;-80
2021/08/16 00:06:45;;;;;;;;;;;;;;;-144.99;97.95;52329.88;5032135;28;19972;-79
2021/08/16 00:09:13;;;;;;;;;;;;;;;-144.99;98.25;52348.22;5030450;28;19977;-78
2021/08/16 00:11:40;;;;;;;;;;;;;;;-144.99;98.11;52346.19;5027310;28;20070;-82
2021/08/16 00:14:06;;;;;;;;;;;;;;;-144.99;98.21;52338.03;5033364;28;20024;-81
2021/08/16 00:16:33;;;;;;;;;;;;;;;-144.99;98.59;52329.88;5032053;28;19980;-79
2021/08/16 00:19:00;;;;;;;;;;;;;;;-144.99;98.80;52362.50;5031108;28;19976;-80
2021/08/16 00:21:26;;;;;;;;;;;;;;;-144.99;99.12;52378.78;5029865;28;19989;-79
2021/08/16 00:23:52;;;;;;;;;;;;;;;-144.99;99.08;52388.97;5033589;28;19980;-81
2021/08/16 00:26:20;;;;;;;;;;;;;;;-144.99;99.08;52382.88;5033091;28;20260;-80
2021/08/16 00:28:46;;;;;;;;;;;;;;;-144.99;99.03;52350.25;5032483;28;20000;-78
2021/08/16 00:31:13;;;;;;;;;;;;;;;-144.99;99.21;52317.66;5028630;28;19988;-80
2021/08/16 00:33:39;;;;;;;;;;;;;;;-144.99;98.92;52329.88;5026165;28;19972;-81
2021/08/16 00:36:05;;;;;;;;;;;;;;;-144.99;99.19;52333.94;5031546;28;20346;-80
2021/08/16 00:38:32;;;;;;;;;;;;;;;-144.99;99.33;52362.50;5029085;28;20307;-77
2021/08/16 00:40:58;;;;;;;;;;;;;;;-144.99;99.36;52297.25;5030196;28;19990;-78
2021/08/16 00:43:26;;;;;;;;;;;;;;;-144.99;99.67;52350.25;5031429;28;20351;-77
2021/08/16 00:45:53;;;;;;;;;;;;;;;-144.99;99.70;52362.50;5027441;28;19992;-79
2021/08/16 00:48:19;;;;;;;;;;;;;;;-144.99;99.55;52382.88;5028747;28;19972;-77
2021/08/16 00:50:46;;;;;;;;;;;;;;;-144.99;99.40;52352.28;5032895;28;19988;-81
2021/08/16 00:53:13;;;;;;;;;;;;;;;-144.99;99.64;52348.22;5026174;28;19981;-82
2021/08/16 00:55:40;;;;;;;;;;;;;;;-144.99;99.97;52350.25;5031977;28;20456;-83
2021/08/16 00:58:06;;;;;;;;;;;;;;;-144.99;99.88;52362.50;5029367;28;20412;-80
2021/08/16 01:00:34;;;;;;;;;;;;;;;-144.99;100.00;52338.03;5034499;28;20363;-80
2021/08/16 01:03:00;;;;;;;;;;;;;;;-144.99;100.00;52338.03;5032690;28;19987;-81
2021/08/16 01:05:26;;;;;;;;;;;;;;;-144.99;100.00;52384.91;5029156;28;20003;-81
2021/08/16 01:07:53;;;;;;;;;;;;;;;-144.99;100.00;52331.91;5026251;28;19978;-82
2021/08/16 01:10:19;;;;;;;;;;;;;;;-144.99;100.00;52354.34;5031402;28;19978;-81
2021/08/16 01:12:46;;;;;;;;;;;;;;;-144.99;100.00;52346.19;5026801;28;19981;-81
2021/08/16 01:15:13;;;;;;;;;;;;;;;-144.99;100.00;52378.78;5023333;28;19995;-82
2021/08/16 01:17:41;;;;;;;;;;;;;;;-144.99;100.00;52333.94;5025510;28;19974;-80
2021/08/16 01:20:08;;;;;;;;;;;;;;;-144.99;100.00;52370.63;5028317;28;20372;-78
2021/08/16 01:22:35;;;;;;;;;;;;;;;-144.99;100.00;52329.88;5023479;28;20001;-78
2021/08/16 01:25:02;;;;;;;;;;;;;;;-144.99;100.00;52342.09;5029776;28;19987;-79
2021/08/16 01:27:30;;;;;;;;;;;;;;;-144.99;100.00;52342.09;5032541;28;20450;-78
2021/08/16 01:29:57;;;;;;;;;;;;;;;-144.99;100.00;52403.25;5028579;28;20224;-78
2021/08/16 01:32:23;;;;;;;;;;;;;;;-144.99;100.00;52370.63;5021909;28;20410;-79
2021/08/16 01:34:50;;;;;;;;;;;;;;;-144.99;100.00;52333.94;5027842;28;20445;-79
2021/08/16 01:37:17;;;;;;;;;;;;;;;-144.99;100.00;52382.88;5025427;28;19975;-78
2021/08/16 01:39:43;;;;;;;;;;;;;;;-144.99;100.00;52344.16;5026433;28;20468;-77
2021/08/16 01:42:09;;;;;;;;;;;;;;;-144.99;100.00;52370.63;5028154;28;20008;-78
2021/08/16 01:44:37;;;;;;;;;;;;;;;-144.99;100.00;52338.03;5029248;28;19997;-78
2021/08/16 01:47:04;;;;;;;;;;;;;;;-144.99;100.00;52340.06;5029236;28;19995;-78
2021/08/16 01:49:30;;;;;;;;;;;;;;;-144.99;100.00;52354.34;5028096;28;19981;-77
2021/08/16 01:51:56;;;;;;;;;;;;;;;-144.99;100.00;52342.09;5029464;28;19978;-77
2021/08/16 01:54:23;;;;;;;;;;;;;;;-144.99;100.00;52346.19;5030829;28;20003;-76
2021/08/16 01:56:49;;;;;;;;;;;;;;;-144.99;100.00;52362.50;5026622;28;19973;-80
2021/08/16 01:59:16;;;;;;;;;;;;;;;-144.99;100.00;52348.22;5034473;28;19981;-80
2021/08/16 02:01:44;;;;;;;;;;;;;;;-144.99;100.00;52338.03;5035677;28;19994;-79
2021/08/16 02:04:10;;;;;;;;;;;;;;;-144.99;100.00;52376.75;5041044;28;20048;-78
2021/08/16 02:06:36;;;;;;;;;;;;;;;-144.99;100.00;52378.78;5035062;28;19974;-82
2021/08/16 02:09:03;;;;;;;;;;;;;;;-144.99;100.00;52370.63;5028345;28;20039;-80
2021/08/16 02:11:29;;;;;;;;;;;;;;;-144.99;100.00;52354.34;5033428;28;19951;-80
2021/08/16 02:13:55;;;;;;;;;;;;;;;-144.99;100.00;52362.50;5028074;28;19993;-81
2021/08/16 02:16:21;;;;;;;;;;;;;;;-144.99;100.00;52333.94;5024678;28;20354;-79
2021/08/16 02:18:49;;;;;;;;;;;;;;;-144.99;100.00;52358.41;5023813;28;19973;-79
2021/08/16 02:21:15;;;;;;;;;;;;;;;-144.99;100.00;52391.03;5028513;28;20006;-80
2021/08/16 02:23:42;;;;;;;;;;;;;;;-144.99;100.00;52358.41;5034920;28;19973;-80
2021/08/16 02:26:08;;;;;;;;;;;;;;;-144.99;100.00;52352.28;5038199;28;19996;-79
2021/08/16 02:28:35;;;;;;;;;;;;;;;-144.99;100.00;52342.09;5017767;28;19987;-78
2021/08/16 02:31:01;;;;;;;;;;;;;;;-144.99;100.00;52393.06;5020797;28;19995;-79
2021/08/16 02:33:27;;;;;;;;;;;;;;;-144.99;100.00;52391.03;5019962;28;19976;-79
2021/08/16 02:35:55;;;;;;;;;;;;;;;-144.99;100.00;52382.88;5026985;28;19993;-79
2021/08/16 02:38:21;;;;;;;;;;;;;;;-144.99;100.00;52382.88;5028717;28;19993;-81
2021/08/16 02:40:48;;;;;;;;;;;;;;;-144.99;100.00;52342.09;5028075;28;19980;-80
2021/08/16 02:43:14;;;;;;;;;;;;;;;-144.99;100.00;52366.56;5032658;28;19994;-81
2021/08/16 02:45:40;;;;;;;;;;;;;;;-144.99;100.00;52370.63;5029065;28;19989;-80
2021/08/16 02:48:07;;;;;;;;;;;;;;;-144.99;100.00;52333.94;5023243;28;19984;-80
2021/08/16 02:50:33;;;;;;;;;;;;;;;-144.99;100.00;52362.50;5029833;28;19985;-80
2021/08/16 02:53:01;;;;;;;;;;;;;;;-144.99;100.00;52338.03;5029723;28;19981;-79
2021/08/16 02:55:27;;;;;;;;;;;;;;;-144.99;100.00;52329.88;5032506;28;19989;-80
2021/08/16 02:57:53;;;;;;;;;;;;;;;-144.99;100.00;52344.16;5035641;28;19983;-77
2021/08/16 03:00:20;;;;;;;;;;;;;;;-144.99;100.00;52362.50;5032318;28;19999;-78
2021/08/16 03:02:46;;;;;;;;;;;;;;;-144.99;100.00;52329.88;5024707;28;20011;-78
2021/08/16 03:05:13;;;;;;;;;;;;;;;-144.99;100.00;52317.66;5030870;28;20002;-78
2021/08/16 03:07:39;;;;;;;;;;;;;;;-144.99;100.00;52354.34;5017207;28;20368;-78
2021/08/16 03:10:08;;;;;;;;;;;;;;;-144.99;100.00;52409.38;5022219;28;19981;-79
2021/08/16 03:12:34;;;;;;;;;;;;;;;-144.99;100.00;52336.00;5029295;28;19982;-76
2021/08/16 03:15:00;;;;;;;;;;;;;;;-144.99;100.00;52382.88;5024536;28;20495;-80
2021/08/16 03:17:27;;;;;;;;;;;;;;;-144.99;100.00;52362.50;5034946;28;19981;-80
2021/08/16 03:19:53;;;;;;;;;;;;;;;-144.99;100.00;52338.03;5027454;28;19978;-80
2021/08/16 03:22:20;;;;;;;;;;;;;;;-144.99;100.00;52333.94;5033618;28;19992;-80
2021/08/16 03:24:46;;;;;;;;;;;;;;;-144.99;100.00;52350.25;5028968;28;20387;-79
2021/08/16 03:27:14;;;;;;;;;;;;;;;-144.99;100.00;52340.06;5031578;28;19984;-79
2021/08/16 03:29:40;;;;;;;;;;;;;;;-144.99;100.00;52327.84;5027607;28;20471;-80
2021/08/16 03:32:07;;;;;;;;;;;;;;;-144.99;100.00;52366.56;5025194;28;19984;-79
2021/08/16 03:34:33;;;;;;;;;;;;;;;-144.99;100.00;52366.56;5021587;28;19997;-78
2021/08/16 03:36:59;;;;;;;;;;;;;;;-144.99;100.00;52340.06;5027040;28;19978;-78
2021/08/16 03:39:25;;;;;;;;;;;;;;;-144.99;100.00;52370.63;5027681;28;19984;-78
2021/08/16 03:41:52;;;;;;;;;;;;;;;-144.99;100.00;52309.50;5028497;28;20002;-78
2021/08/16 03:44:19;;;;;;;;;;;;;;;-144.99;100.00;52354.34;5025273;28;19972;-78
2021/08/16 03:46:46;;;;;;;;;;;;;;;-144.99;100.00;52354.34;5028234;28;20428;-78
2021/08/16 03:49:12;;;;;;;;;;;;;;;-144.99;100.00;52350.25;5019023;28;19989;-79
2021/08/16 03:51:39;;;;;;;;;;;;;;;-144.99;100.00;52358.41;5022258;28;19979;-78
2021/08/16 03:54:05;;;;;;;;;;;;;;;-144.99;100.00;52366.56;5027418;28;19982;-77
2021/08/16 03:56:31;;;;;;;;;;;;;;;-144.99;100.00;52413.44;5027244;28;19983;-79
2021/08/16 03:58:58;;;;;;;;;;;;;;;-144.99;100.00;52325.81;5030199;28;20383;-79
2021/08/16 04:01:25;;;;;;;;;;;;;;;-144.99;100.00;52366.56;5028832;28;19983;-79
2021/08/16 04:03:52;;;;;;;;;;;;;;;-144.99;100.00;52388.97;5026866;28;20103;-78
2021/08/16 04:06:18;;;;;;;;;;;;;;;-144.99;100.00;52374.72;5019814;28;19998;-78
2021/08/16 04:08:44;;;;;;;;;;;;;;;-144.99;100.00;52358.41;5026202;28;19985;-78
2021/08/16 04:11:11;;;;;;;;;;;;;;;-144.99;100.00;52317.66;5027224;28;19977;-78
2021/08/16 04:13:38;;;;;;;;;;;;;;;-144.99;100.00;52358.41;5028189;28;19986;-75
2021/08/16 04:16:04;;;;;;;;;;;;;;;-144.99;100.00;52354.34;5022355;28;20221;-79
2021/08/16 04:18:32;;;;;;;;;;;;;;;-144.99;100.00;52348.22;5022167;28;19992;-80
2021/08/16 04:21:00;;;;;;;;;;;;;;;-144.99;100.00;52354.34;5019656;28;19988;-80
2021/08/16 04:23:26;;;;;;;;;;;;;;;-144.99;100.00;52399.19;5026003;28;19993;-80
2021/08/16 04:25:52;;;;;;;;;;;;;;;-144.99;100.00;52329.88;5024605;28;20009;-79
2021/08/16 04:28:19;;;;;;;;;;;;;;;-144.99;100.00;52348.22;5028013;28;19977;-81
2021/08/16 04:30:46;;;;;;;;;;;;;;;-144.99;100.00;52354.34;5023044;28;19992;-79
2021/08/16 04:33:12;;;;;;;;;;;;;;;-144.99;100.00;52338.03;5022550;28;19978;-80
2021/08/16 04:35:40;;;;;;;;;;;;;;;-144.99;100.00;52352.28;5022573;28;19989;-79
2021/08/16 04:38:07;;;;;;;;;;;;;;;-144.99;100.00;52374.72;5028078;28;19991;-78
2021/08/16 04:40:33;;;;;;;;;;;;;;;-144.99;100.00;52386.94;5025305;28;20031;-80
2021/08/16 04:42:59;;;;;;;;;;;;;;;-144.99;100.00;52346.19;5027469;28;19991;-78
2021/08/16 04:45:25;;;;;;;;;;;;;;;-144.99;100.00;52372.69;5030654;28;20003;-78
2021/08/16 04:47:52;;;;;;;;;;;;;;;-144.99;100.00;52362.50;5030057;28;20344;-78
2021/08/16 04:50:18;;;;;;;;;;;;;;;-144.99;100.00;52338.03;5028665;28;19981;-78
2021/08/16 04:52:46;;;;;;;;;;;;;;;-144.99;100.00;52352.28;5026247;28;20016;-79
2021/08/16 04:55:12;;;;;;;;;;;;;;;-144.99;100.00;52321.72;5025259;28;19993;-79
2021/08/16 04:57:40;;;;;;;;;;;;;;;-144.99;100.00;52348.22;5033869;28;19984;-79
2021/08/16 05:00:07;;;;;;;;;;;;;;;-144.99;100.00;52321.72;5030535;28;19983;-79
2021/08/16 05:02:34;;;;;;;;;;;;;;;-144.99;100.00;52329.88;5028209;28;19992;-80
2021/08/16 05:05:07;;;;;;;;;;;;;;;-144.99;100.00;52331.91;5028820;28;20000;-80
2021/08/16 05:07:33;;;;;;;;;;;;;;;-144.99;100.00;52358.41;5026245;28;20076;-78
2021/08/16 05:10:01;;;;;;;;;;;;;;;-144.99;100.00;52350.25;5033117;28;20009;-82
2021/08/16 05:12:28;;;;;;;;;;;;;;;-144.99;100.00;52303.38;5019161;28;19996;-81
2021/08/16 05:14:54;;;;;;;;;;;;;;;-144.99;100.00;52366.56;5034249;28;19993;-80
2021/08/16 05:17:21;;;;;;;;;;;;;;;-144.99;100.00;52333.94;5033350;28;20297;-80
2021/08/16 05:19:47;;;;;;;;;;;;;;;-144.99;100.00;52407.31;5025062;28;19973;-80
2021/08/16 05:22:13;;;;;;;;;;;;;;;-144.99;100.00;52321.72;5029514;28;20092;-81
2021/08/16 05:24:40;;;;;;;;;;;;;;;-144.99;100.00;52325.81;5031160;28;20088;-83
2021/08/16 05:29:35;;;;;;;;;;;;;;;-144.99;100.00;52350.25;5058425;28;19999;-77
2021/08/16 05:32:01;;;;;;;;;;;;;;;-144.99;100.00;52362.50;5056228;28;20456;-77
2021/08/16 05:34:28;;;;;;;;;;;;;;;-144.99;100.00;52325.81;5046859;28;19973;-78
2021/08/16 05:36:54;;;;;;;;;;;;;;;-144.99;100.00;52327.84;5048123;28;19972;-78
2021/08/16 05:39:20;;;;;;;;;;;;;;;-144.99;100.00;52374.72;5051811;28;20449;-77
2021/08/16 05:41:47;;;;;;;;;;;;;;;-144.99;100.00;52342.09;5062862;28;19980;-77
2021/08/16 05:44:13;;;;;;;;;;;;;;;-144.99;100.00;52352.28;5046420;28;20027;-78
2021/08/16 05:46:41;;;;;;;;;;;;;;;-144.99;100.00;52331.91;5039010;28;20455;-77
2021/08/16 05:49:07;;;;;;;;;;;;;;;-144.99;100.00;52338.03;5049201;28;19994;-77
2021/08/16 05:51:33;;;;;;;;;;;;;;;-144.99;100.00;52354.34;5042975;28;20385;-76
2021/08/16 05:54:00;;;;;;;;;;;;;;;-144.99;100.00;52321.72;5048526;28;20578;-77
2021/08/16 05:56:26;;;;;;;;;;;;;;;-144.99;100.00;52354.34;5043042;28;20328;-78
2021/08/16 05:58:52;;;;;;;;;;;;;;;-144.99;100.00;52362.50;5047431;28;19995;-77
2021/08/16 06:01:18;;;;;;;;;;;;;;;-144.99;100.00;52323.75;5049348;28;19976;-77
2021/08/16 06:03:46;;;;;;;;;;;;;;;-144.99;100.00;52354.34;5058302;28;19995;-77
2021/08/16 06:06:12;;;;;;;;;;;;;;;-144.99;100.00;52344.16;5042038;28;19973;-76
2021/08/16 06:08:39;;;;;;;;;;;;;;;-144.99;100.00;52325.81;5043570;28;19990;-76
2021/08/16 06:11:05;;;;;;;;;;;;;;;-144.99;100.00;52329.88;5060444;28;19994;-76
2021/08/16 06:13:31;;;;;;;;;;;;;;;-144.99;100.00;52342.09;5068051;28;19984;-78
2021/08/16 06:15:58;;;;;;;;;;;;;;;-144.99;100.00;52346.19;5040695;28;19976;-76
2021/08/16 06:18:25;;;;;;;;;;;;;;;-144.99;100.00;52317.66;5044698;28;20038;-75
2021/08/16 06:20:54;;;;;;;;;;;;;;;-144.99;100.00;52342.09;5048940;28;19980;-75
2021/08/16 06:23:20;;;;;;;;;;;;;;;-144.99;100.00;52321.72;5051413;28;19993;-76
2021/08/16 06:25:46;;;;;;;;;;;;;;;-144.99;100.00;52338.03;5037121;28;19972;-78
2021/08/16 06:28:13;;;;;;;;;;;;;;;-144.99;100.00;52350.25;5049553;28;20007;-77
2021/08/16 06:30:39;;;;;;;;;;;;;;;-144.99;100.00;52350.25;5042355;28;19977;-78
2021/08/16 06:33:05;;;;;;;;;;;;;;;-144.99;100.00;52354.34;5047349;28;20434;-77
2021/08/16 06:35:32;;;;;;;;;;;;;;;-144.99;100.00;52321.72;5050612;28;20070;-77
2021/08/16 06:38:00;;;;;;;;;;;;;;;-144.99;100.00;52374.72;5045199;28;19999;-79
2021/08/16 06:40:26;;;;;;;;;;;;;;;-144.99;100.00;52313.56;5054990;28;20005;-78
2021/08/16 06:42:52;;;;;;;;;;;;;;;-144.99;100.00;52329.88;5069215;28;19994;-79
2021/08/16 06:45:18;;;;;;;;;;;;;;;-144.99;100.00;52354.34;5060677;28;19975;-80
2021/08/16 06:47:45;;;;;;;;;;;;;;;-144.99;100.00;52325.81;5056743;28;20007;-70
2021/08/16 06:50:11;;;;;;;;;;;;;;;-144.99;100.00;52297.25;5046984;28;20042;-70
2021/08/16 06:52:37;;;;;;;;;;;;;;;-144.99;100.00;52333.94;5055221;28;20443;-70
2021/08/16 06:55:06;;;;;;;;;;;;;;;-144.99;100.00;52293.19;5045205;28;19973;-70
2021/08/16 06:57:33;;;;;;;;;;;;;;;-144.99;100.00;52346.19;5051630;28;19992;-70
2021/08/16 06:59:59;;;;;;;;;;;;;;;-144.99;100.00;52336.00;5035297;28;20155;-70
2021/08/16 07:02:25;;;;;;;;;;;;;;;-144.99;100.00;52313.56;5044635;28;20037;-71
2021/08/16 07:04:52;;;;;;;;;;;;;;;-144.99;100.00;52340.06;5041552;28;19994;-69
2021/08/16 07:07:18;;;;;;;;;;;;;;;-144.99;100.00;52346.19;5042435;28;19997;-72
2021/08/16 07:09:44;;;;;;;;;;;;;;;-144.99;100.00;52352.28;5045406;28;19973;-71
2021/08/16 07:12:12;;;;;;;;;;;;;;;-144.99;100.00;52323.75;5039114;28;20051;-70
2021/08/16 07:14:38;;;;;;;;;;;;;;;-144.99;100.00;52366.56;5035278;28;20252;-69
2021/08/16 07:17:05;;;;;;;;;;;;;;;-144.99;100.00;52329.88;5047333;28;19973;-76
2021/08/16 07:19:31;;;;;;;;;;;;;;;-144.99;100.00;52331.91;5047728;28;19973;-75
2021/08/16 07:21:58;;;;;;;;;;;;;;;-144.99;100.00;52317.66;5046916;28;19976;-71
2021/08/16 07:24:24;;;;;;;;;;;;;;;-144.99;100.00;52370.63;5045507;28;19995;-71
2021/08/16 07:26:52;;;;;;;;;;;;;;;-144.99;100.00;52348.22;5054768;28;19976;-74
2021/08/16 07:29:19;;;;;;;;;;;;;;;-144.99;100.00;52346.19;5041782;28;20209;-72
2021/08/16 07:31:46;;;;;;;;;;;;;;;-144.99;100.00;52344.16;5038696;28;20346;-72
2021/08/16 07:34:12;;;;;;;;;;;;;;;-144.99;100.00;52360.44;5045921;28;19982;-71
2021/08/16 07:36:38;;;;;;;;;;;;;;;-144.99;100.00;52354.34;5042941;28;19978;-72
2021/08/16 07:39:05;;;;;;;;;;;;;;;-144.99;100.00;52378.78;5043223;28;19999;-70
2021/08/16 07:41:31;;;;;;;;;;;;;;;-144.99;100.00;52338.03;5042601;28;20086;-74
2021/08/16 07:43:57;;;;;;;;;;;;;;;-144.99;100.00;52342.09;5044761;28;19992;-70
2021/08/16 07:46:25;;;;;;;;;;;;;;;-144.99;100.00;52352.28;5045256;28;19975;-73
2021/08/16 07:48:51;;;;;;;;;;;;;;;-144.99;100.00;52399.19;5040195;28;19988;-74
2021/08/16 07:51:18;;;;;;;;;;;;;;;-144.99;100.00;52374.72;5047456;28;20436;-71
2021/08/16 07:53:45;;;;;;;;;;;;;;;-144.99;100.00;52352.28;5050691;28;19982;-73
2021/08/16 07:56:11;;;;;;;;;;;;;;;-144.99;100.00;52346.19;5065232;28;20208;-73
2021/08/16 07:58:38;;;;;;;;;;;;;;;-144.99;100.00;52362.50;5059053;28;20427;-73
2021/08/16 08:01:04;;;;;;;;;;;;;;;-144.99;100.00;52350.25;5044528;28;19983;-74
2021/08/16 08:03:32;;;;;;;;;;;;;;;-144.99;100.00;52346.19;5051548;28;19990;-73
2021/08/16 08:05:58;;;;;;;;;;;;;;;-144.99;100.00;52354.34;5051444;28;19987;-72
2021/08/16 08:08:24;;;;;;;;;;;;;;;-144.99;100.00;52333.94;5051038;28;20004;-74
2021/08/16 08:10:51;;;;;;;;;;;;;;;-144.99;100.00;52327.84;5051607;28;19986;-72
2021/08/16 08:13:17;;;;;;;;;;;;;;;-144.99;100.00;52358.41;5053725;28;20338;-73
2021/08/16 08:15:43;;;;;;;;;;;;;;;-144.99;100.00;52411.41;5062557;28;19976;-74
2021/08/16 08:18:11;;;;;;;;;;;;;;;-144.99;100.00;52362.50;5050396;28;20003;-73
2021/08/16 08:20:39;;;;;;;;;;;;;;;-144.99;100.00;52366.56;5049243;28;19975;-73
2021/08/16 08:23:05;;;;;;;;;;;;;;;-144.99;100.00;52374.72;5053647;28;19991;-73
2021/08/16 08:25:31;;;;;;;;;;;;;;;-144.99;100.00;52338.03;5054001;28;20069;-72
2021/08/16 08:27:58;;;;;;;;;;;;;;;-144.99;100.00;52336.00;5053535;28;20014;-73
2021/08/16 08:30:24;;;;;;;;;;;;;;;-144.99;100.00;52350.25;5055370;28;19942;-72
2021/08/16 08:32:51;;;;;;;;;;;;;;;-144.99;100.00;52342.09;5046662;28;19976;-74
2021/08/16 08:35:19;;;;;;;;;;;;;;;-144.99;100.00;52333.94;5054203;28;19978;-73
2021/08/16 08:37:46;;;;;;;;;;;;;;;-144.99;100.00;52333.94;5052527;28;20027;-73
2021/08/16 08:40:13;;;;;;;;;;;;;;;-144.99;100.00;52317.66;5054342;28;20439;-73
2021/08/16 08:42:39;;;;;;;;;;;;;;;-144.99;100.00;52309.50;5057156;28;20432;-73
2021/08/16 08:45:06;;;;;;;;;;;;;;;-144.99;100.00;52299.31;5049760;28;19992;-73
2021/08/16 08:47:33;;;;;;;;;;;;;;;-144.99;100.00;52315.59;5053120;28;19994;-74
2021/08/16 08:50:00;;;;;;;;;;;;;;;-144.99;100.00;52309.50;5054150;28;19976;-73
2021/08/16 08:52:26;;;;;;;;;;;;;;;-144.99;100.00;52350.25;5061499;28;19976;-75
2021/08/16 08:54:55;;;;;;;;;;;;;;;-144.99;100.00;52362.50;5070870;28;19987;-74
2021/08/16 08:57:22;;;;;;;;;;;;;;;-144.99;100.00;52329.88;5058913;28;20006;-72
2021/08/16 08:59:48;;;;;;;;;;;;;;;-144.99;100.00;52299.31;5062596;28;19979;-74
2021/08/16 09:02:14;;;;;;;;;;;;;;;-144.99;100.00;52329.88;5051371;28;20020;-73
2021/08/16 09:04:49;;;;;;;;;;;;;;;-144.99;100.00;52362.50;5067691;28;19996;-75
2021/08/16 09:07:15;;;;;;;;;;;;;;;-144.99;100.00;52317.66;5051895;28;19977;-74
2021/08/16 09:09:51;;;;;;;;;;;;;;;-144.99;100.00;52352.28;5053219;28;20391;-73
2021/08/16 09:12:28;;;;;;;;;;;;;;;-144.99;100.00;52376.75;5052763;28;20070;-74
2021/08/16 09:14:54;;;;;;;;;;;;;;;-144.99;100.00;52342.09;5053015;28;19979;-72
2021/08/16 09:17:27;;;;;;;;;;;;;;;-144.99;100.00;52338.03;5063209;28;19983;-71
2021/08/16 09:19:53;;;;;;;;;;;;;;;-144.99;100.00;52342.09;5065175;28;20454;-73
2021/08/16 09:22:24;;;;;;;;;;;;;;;-144.99;100.00;52338.03;5056256;28;19983;-72
2021/08/16 09:24:59;;;;;;;;;;;;;;;-144.99;100.00;52356.38;5055745;28;20053;-74
2021/08/16 09:27:25;;;;;;;;;;;;;;;-144.99;100.00;52321.72;5057066;28;19981;-73
2021/08/16 09:29:53;;;;;;;;;;;;;;;-144.99;100.00;52352.28;5060073;28;20252;-73
2021/08/16 09:32:30;;;;;;;;;;;;;;;-144.99;100.00;52358.41;5050809;28;19976;-74
2021/08/16 09:34:58;;;;;;;;;;;;;;;-144.99;100.00;52366.56;5052676;28;20353;-73
2021/08/16 09:37:26;;;;;;;;;;;;;;;-144.99;100.00;52366.56;5058617;28;20021;-73
2021/08/16 09:39:58;;;;;;;;;;;;;;;-144.99;100.00;52378.78;5056911;28;20054;-75
2021/08/16 09:42:24;;;;;;;;;;;;;;;-144.99;100.00;52350.25;5054164;28;19982;-73
2021/08/16 09:44:52;;;;;;;;;;;;;;;-144.99;100.00;52366.56;5071033;28;20386;-74
2021/08/16 09:47:20;;;;;;;;;;;;;;;-144.99;100.00;52354.34;5063652;28;19987;-74
2021/08/16 09:49:55;;;;;;;;;;;;;;;-144.99;100.00;52386.94;5059326;28;19972;-73
2021/08/16 09:52:28;;;;;;;;;;;;;;;-144.99;100.00;52350.25;5061772;28;19977;-73
2021/08/16 09:54:54;;;;;;;;;;;;;;;-144.99;100.00;52333.94;5054429;28;19979;-71
2021/08/16 09:57:21;;;;;;;;;;;;;;;-144.99;100.00;52362.50;5039199;28;19987;-72
2021/08/16 09:59:48;;;;;;;;;;;;;;;-144.99;100.00;52388.97;5051719;28;19972;-73
2021/08/16 10:02:15;;;;;;;;;;;;;;;-144.99;100.00;52358.41;5050890;28;19980;-73
2021/08/16 10:04:42;;;;;;;;;;;;;;;-144.99;100.00;52342.09;5043792;28;19995;-73
2021/08/16 10:07:10;;;;;;;;;;;;;;;-144.99;100.00;52358.41;5053966;28;20439;-73
2021/08/16 10:09:36;;;;;;;;;;;;;;;-144.99;100.00;52395.09;5051429;28;19972;-73
2021/08/16 10:12:04;;;;;;;;;;;;;;;-144.99;100.00;52333.94;5051624;28;20090;-73
2021/08/16 10:14:32;;;;;;;;;;;;;;;-144.99;100.00;52364.53;5051397;28;19972;-73
2021/08/16 10:16:59;;;;;;;;;;;;;;;-144.99;100.00;52333.94;5053453;28;19985;-73
2021/08/16 10:19:28;;;;;;;;;;;;;;;-144.99;100.00;52374.72;5051552;28;20414;-75
2021/08/16 10:21:59;;;;;;;;;;;;;;;-144.99;100.00;52350.25;5058692;28;19976;-74
2021/08/16 10:24:28;;;;;;;;;;;;;;;-144.99;100.00;52346.19;5065113;28;20031;-74
2021/08/16 10:26:56;;;;;;;;;;;;;;;-144.99;100.00;52321.72;5071836;28;20047;-73
2021/08/16 10:29:23;;;;;;;;;;;;;;;-144.99;100.00;52350.25;5060837;28;19995;-74
2021/08/16 10:31:52;;;;;;;;;;;;;;;-144.99;100.00;52291.16;5058351;28;20403;-74
2021/08/16 10:34:24;;;;;;;;;;;;;;;-144.99;100.00;52358.41;5051842;28;20449;-74
2021/08/16 10:36:54;;;;;;;;;;;;;;;-144.99;100.00;52313.56;5059038;28;20062;-72
2021/08/16 10:39:32;;;;;;;;;;;;;;;-144.99;100.00;52360.44;5049235;28;20083;-73
2021/08/16 10:42:04;;;;;;;;;;;;;;;-144.99;100.00;52346.19;5049737;28;19972;-70
2021/08/16 10:44:37;;;;;;;;;;;;;;;-144.99;100.00;52313.56;5049678;28;19992;-73
2021/08/16 10:47:04;;;;;;;;;;;;;;;-144.99;100.00;52333.94;5050963;28;20130;-72
2021/08/16 10:49:31;;;;;;;;;;;;;;;-144.99;100.00;52350.25;5064858;28;19992;-73
2021/08/16 10:51:57;;;;;;;;;;;;;;;-144.99;100.00;52350.25;5052591;28;19976;-73
2021/08/16 10:54:26;;;;;;;;;;;;;;;-144.99;100.00;52362.50;5041741;28;19980;-74
2021/08/16 10:56:53;;;;;;;;;;;;;;;-144.99;100.00;52370.63;5055552;28;19988;-74
2021/08/16 10:59:20;;;;;;;;;;;;;;;-144.99;100.00;52366.56;5051308;28;20387;-74
2021/08/16 11:01:47;;;;;;;;;;;;;;;-144.99;100.00;52366.56;5050200;28;19978;-75
2021/08/16 11:04:15;;;;;;;;;;;;;;;-144.99;100.00;52338.03;5051189;28;19999;-73
2021/08/16 11:06:52;;;;;;;;;;;;;;;-144.99;100.00;52346.19;5039347;28;20054;-74
2021/08/16 11:09:23;;;;;;;;;;;;;;;-144.99;100.00;52350.25;5047616;28;19996;-73
2021/08/16 11:11:52;;;;;;;;;;;;;;;-144.99;100.00;52378.78;5049827;28;19972;-74
2021/08/16 11:14:23;;;;;;;;;;;;;;;-144.99;100.00;52327.84;5058082;28;19969;-74
2021/08/16 11:16:50;;;;;;;;;;;;;;;-144.99;100.00;52331.91;5051820;28;19978;-74
2021/08/16 11:19:16;;;;;;;;;;;;;;;-144.99;100.00;52358.41;5051238;28;20018;-74
2021/08/16 11:21:55;;;;;;;;;;;;;;;-144.99;100.00;52362.50;5058980;28;20373;-74
2021/08/16 11:24:29;;;;;;;;;;;;;;;-144.99;100.00;52327.84;5070491;28;20150;-74
2021/08/16 11:26:56;;;;;;;;;;;;;;;-144.99;100.00;52354.34;5077437;28;19985;-73
2021/08/16 11:29:24;;;;;;;;;;;;;;;-144.99;100.00;52368.59;5065561;28;19996;-74
2021/08/16 11:31:55;;;;;;;;;;;;;;;-144.99;100.00;52346.19;5044253;28;19972;-74
2021/08/16 11:34:21;;;;;;;;;;;;;;;-144.99;99.61;52333.94;5049179;28;20005;-73
2021/08/16 11:36:47;;;;;;;;;;;;;;;-144.99;99.85;52362.50;5059458;28;20472;-72
2021/08/16 11:39:14;;;;;;;;;;;;;;;-144.99;100.00;52352.28;5056782;28;20465;-77
2021/08/16 11:41:40;;;;;;;;;;;;;;;-144.99;100.00;52397.13;5058109;28;19978;-73
2021/08/16 11:44:15;;;;;;;;;;;;;;;-144.99;100.00;52338.03;5066834;28;19977;-71
2021/08/16 11:46:42;;;;;;;;;;;;;;;-144.99;100.00;52374.72;5059898;22;19996;-75
2021/08/16 11:49:10;;;;;;;;;;;;;;;-144.99;100.00;52368.59;5032795;28;20383;-78
2021/08/16 11:51:36;;;;;;;;;;;;;;;-144.99;100.00;52360.44;5033400;28;20014;-77
2021/08/16 11:54:02;;;;;;;;;;;;;;;-144.99;100.00;52329.88;5034584;28;19985;-78
2021/08/16 11:56:29;;;;;;;;;;;;;;;-144.99;100.00;52376.75;5024996;28;19992;-78
2021/08/16 11:58:55;;;;;;;;;;;;;;;-144.99;100.00;52356.38;5019261;28;19984;-79
2021/08/16 12:01:23;;;;;;;;;;;;;;;-144.99;99.86;52370.63;5017306;28;19980;-78
2021/08/16 12:03:50;;;;;;;;;;;;;;;-144.99;98.26;52370.63;5014647;28;19977;-77
2021/08/16 12:06:17;;;;;;;;;;;;;;;-144.99;99.96;52374.72;5012661;28;20008;-77
2021/08/16 12:08:43;;;;;;;;;;;;;;;-144.99;100.00;52346.19;5017328;28;20463;-77
2021/08/16 12:11:10;;;;;;;;;;;;;;;-144.99;99.95;52362.50;5008242;28;20232;-78
2021/08/16 12:13:36;;;;;;;;;;;;;;;-144.99;100.00;52342.09;5017096;28;19977;-79
2021/08/16 12:16:03;;;;;;;;;;;;;;;-144.99;99.51;52354.34;5016813;28;19993;-78
2021/08/16 12:18:32;;;;;;;;;;;;;;;-144.99;100.00;52358.41;5014402;28;20186;-78
2021/08/16 12:20:58;;;;;;;;;;;;;;;-144.99;100.00;52350.25;5015565;28;20034;-75